Rio Sono, Brazil
Current Conditions -  °F | °C
As of 5:00 PM on Wednesday 26 Nov 2014 (Local Time) from SBPJ Reporting Station
Scattered Clouds Scattered Clouds  
Wind Chill: 82°   Ceiling: Unl
Heat Index: 88°   Visibility: 6mi
Dew Point: 73°   Wind: 2mph
Humidity: 74%   Direction: 210°SSW
Pressure: 29.77"   Gusts: NA
Location:  9.34°S, 47.9°W
Report Text: SBPJ 262000Z 21002KT 9999 FEW025 FEW027TCU SCT100 28/23 Q1008
Loading
Personal Weather Stations






























Interactive Weather Map New forecast layout! Learn more

10-Day Weather Forecast

Advertisements
Track Severe Weather on mobile